sensor_id;sensor_type;location;lat;lon;timestamp;pressure;altitude;pressure_sealevel;temperature;humidity
44839;BME280;30576;42.098;24.876;2022-12-07T00:01:10;99949.22;;;7.28;75.94
44839;BME280;30576;42.098;24.876;2022-12-07T00:03:36;99964.09;;;7.37;75.76
44839;BME280;30576;42.098;24.876;2022-12-07T00:06:03;99958.81;;;7.30;75.85
44839;BME280;30576;42.098;24.876;2022-12-07T00:08:29;99951.84;;;7.31;75.83
44839;BME280;30576;42.098;24.876;2022-12-07T00:10:54;99951.84;;;7.32;75.75
44839;BME280;30576;42.098;24.876;2022-12-07T00:13:20;99961.44;;;7.21;76.66
44839;BME280;30576;42.098;24.876;2022-12-07T00:15:45;99954.47;;;7.34;76.04
44839;BME280;30576;42.098;24.876;2022-12-07T00:18:10;99953.56;;;7.24;75.71
44839;BME280;30576;42.098;24.876;2022-12-07T00:20:36;99953.56;;;7.20;75.81
44839;BME280;30576;42.098;24.876;2022-12-07T00:23:01;99956.19;;;7.21;76.28
44839;BME280;30576;42.098;24.876;2022-12-07T00:25:26;99954.44;;;7.14;75.96
44839;BME280;30576;42.098;24.876;2022-12-07T00:27:52;99943.94;;;7.15;76.07
44839;BME280;30576;42.098;24.876;2022-12-07T00:30:18;99954.44;;;7.22;75.87
44839;BME280;30576;42.098;24.876;2022-12-07T00:32:43;99954.44;;;7.19;75.59
44839;BME280;30576;42.098;24.876;2022-12-07T00:35:09;99957.03;;;7.11;75.87
44839;BME280;30576;42.098;24.876;2022-12-07T00:37:34;99957.03;;;7.08;75.62
44839;BME280;30576;42.098;24.876;2022-12-07T00:39:59;99957.03;;;7.09;75.17
44839;BME280;30576;42.098;24.876;2022-12-07T00:42:25;99961.41;;;7.13;75.37
44839;BME280;30576;42.098;24.876;2022-12-07T00:44:50;99955.25;;;7.02;75.34
44839;BME280;30576;42.098;24.876;2022-12-07T00:47:15;99959.59;;;6.92;75.15
44839;BME280;30576;42.098;24.876;2022-12-07T00:49:41;99958.63;;;6.75;75.50
44839;BME280;30576;42.098;24.876;2022-12-07T00:52:06;99961.25;;;6.73;75.80
44839;BME280;30576;42.098;24.876;2022-12-07T00:54:31;99952.50;;;6.71;75.39
44839;BME280;30576;42.098;24.876;2022-12-07T00:56:56;99947.19;;;6.60;75.78
44839;BME280;30576;42.098;24.876;2022-12-07T00:59:22;99944.59;;;6.63;76.14
44839;BME280;30576;42.098;24.876;2022-12-07T01:01:47;99950.66;;;6.58;76.23
44839;BME280;30576;42.098;24.876;2022-12-07T01:04:12;99954.09;;;6.43;76.63
44839;BME280;30576;42.098;24.876;2022-12-07T01:06:38;99956.81;;;6.57;76.50
44839;BME280;30576;42.098;24.876;2022-12-07T01:09:03;99954.22;;;6.65;75.84
44839;BME280;30576;42.098;24.876;2022-12-07T01:11:30;99948.94;;;6.57;76.79
44839;BME280;30576;42.098;24.876;2022-12-07T01:13:56;99948.97;;;6.63;76.67
44839;BME280;30576;42.098;24.876;2022-12-07T01:16:22;99948.94;;;6.58;77.07
44839;BME280;30576;42.098;24.876;2022-12-07T01:18:49;99952.50;;;6.73;76.11
44839;BME280;30576;42.098;24.876;2022-12-07T01:21:16;99949.84;;;6.63;76.10
44839;BME280;30576;42.098;24.876;2022-12-07T01:23:42;99942.81;;;6.61;76.23
44839;BME280;30576;42.098;24.876;2022-12-07T01:26:10;99943.69;;;6.57;75.83
44839;BME280;30576;42.098;24.876;2022-12-07T01:28:35;99936.69;;;6.54;76.41
44839;BME280;30576;42.098;24.876;2022-12-07T01:31:05;99937.56;;;6.59;76.45
44839;BME280;30576;42.098;24.876;2022-12-07T01:33:31;99927.94;;;6.52;76.25
44839;BME280;30576;42.098;24.876;2022-12-07T01:36:07;99932.25;;;6.42;76.24
44839;BME280;30576;42.098;24.876;2022-12-07T01:38:33;99919.09;;;6.36;76.07
44839;BME280;30576;42.098;24.876;2022-12-07T01:40:58;99913.88;;;6.38;76.37
44839;BME280;30576;42.098;24.876;2022-12-07T01:43:25;99920.03;;;6.40;76.48
44839;BME280;30576;42.098;24.876;2022-12-07T01:45:51;99914.78;;;6.41;75.76
44839;BME280;30576;42.098;24.876;2022-12-07T01:48:17;99904.34;;;6.48;75.69
44839;BME280;30576;42.098;24.876;2022-12-07T01:50:44;99910.38;;;6.36;75.76
44839;BME280;30576;42.098;24.876;2022-12-07T01:53:10;99908.66;;;6.42;76.01
44839;BME280;30576;42.098;24.876;2022-12-07T01:55:37;99905.06;;;6.25;75.84
44839;BME280;30576;42.098;24.876;2022-12-07T01:58:03;99905.09;;;6.28;76.22
44839;BME280;30576;42.098;24.876;2022-12-07T02:00:29;99907.72;;;6.30;75.41
44839;BME280;30576;42.098;24.876;2022-12-07T02:02:55;99900.69;;;6.25;75.86
44839;BME280;30576;42.098;24.876;2022-12-07T02:05:22;99900.69;;;6.24;76.27
44839;BME280;30576;42.098;24.876;2022-12-07T02:07:49;99904.22;;;6.26;76.13
44839;BME280;30576;42.098;24.876;2022-12-07T02:10:17;99904.22;;;6.27;76.34
44839;BME280;30576;42.098;24.876;2022-12-07T02:12:43;99903.34;;;6.30;76.01
44839;BME280;30576;42.098;24.876;2022-12-07T02:15:10;99897.09;;;6.06;76.47
44839;BME280;30576;42.098;24.876;2022-12-07T02:17:48;99898.91;;;6.14;76.51
44839;BME280;30576;42.098;24.876;2022-12-07T02:20:22;99904.19;;;6.21;76.27
44839;BME280;30576;42.098;24.876;2022-12-07T02:22:55;99896.38;;;6.26;76.45
44839;BME280;30576;42.098;24.876;2022-12-07T02:28:06;99891.13;;;6.24;76.92
44839;BME280;30576;42.098;24.876;2022-12-07T02:30:34;99889.34;;;6.20;76.61
44839;BME280;30576;42.098;24.876;2022-12-07T02:33:08;99889.41;;;6.31;77.12
44839;BME280;30576;42.098;24.876;2022-12-07T02:35:41;99890.22;;;6.24;76.69
44839;BME280;30576;42.098;24.876;2022-12-07T02:43:09;99883.19;;;6.15;77.21
44839;BME280;30576;42.098;24.876;2022-12-07T02:45:38;99884.09;;;6.22;76.58
44839;BME280;30576;42.098;24.876;2022-12-07T02:48:04;99878.81;;;6.13;76.29
44839;BME280;30576;42.098;24.876;2022-12-07T02:50:31;99877.06;;;6.16;76.50
44839;BME280;30576;42.098;24.876;2022-12-07T02:52:56;99870.06;;;6.06;77.18
44839;BME280;30576;42.098;24.876;2022-12-07T02:55:23;99871.81;;;6.12;76.96
44839;BME280;30576;42.098;24.876;2022-12-07T02:57:56;99865.75;;;6.20;76.72
44839;BME280;30576;42.098;24.876;2022-12-07T03:00:26;99869.19;;;6.10;75.91
44839;BME280;30576;42.098;24.876;2022-12-07T03:02:58;99868.31;;;6.08;75.82
44839;BME280;30576;42.098;24.876;2022-12-07T03:10:40;99863.81;;;5.95;76.46
44839;BME280;30576;42.098;24.876;2022-12-07T03:13:14;99861.13;;;5.84;77.07
44839;BME280;30576;42.098;24.876;2022-12-07T03:15:55;99862.13;;;5.97;76.79
44839;BME280;30576;42.098;24.876;2022-12-07T03:18:22;99862.84;;;5.80;76.59
44839;BME280;30576;42.098;24.876;2022-12-07T03:20:49;99864.66;;;5.89;76.17
44839;BME280;30576;42.098;24.876;2022-12-07T03:23:16;99857.63;;;5.83;76.28
44839;BME280;30576;42.098;24.876;2022-12-07T03:25:45;99854.97;;;5.76;76.52
44839;BME280;30576;42.098;24.876;2022-12-07T03:28:12;99867.28;;;5.89;76.19
44839;BME280;30576;42.098;24.876;2022-12-07T03:30:50;99881.22;;;5.85;76.01
44839;BME280;30576;42.098;24.876;2022-12-07T03:34:05;99873.25;;;5.71;76.84
44839;BME280;30576;42.098;24.876;2022-12-07T03:39:03;99879.34;;;5.71;77.59
44839;BME280;30576;42.098;24.876;2022-12-07T03:41:33;99877.66;;;5.75;77.45
44839;BME280;30576;42.098;24.876;2022-12-07T03:43:59;99879.34;;;5.71;78.25
44839;BME280;30576;42.098;24.876;2022-12-07T03:51:44;99880.16;;;5.60;79.21
44839;BME280;30576;42.098;24.876;2022-12-07T03:56:36;99872.53;;;5.89;78.79
44839;BME280;30576;42.098;24.876;2022-12-07T03:59:01;99870.00;;;6.00;78.36
44839;BME280;30576;42.098;24.876;2022-12-07T04:01:27;99864.69;;;5.92;78.51
44839;BME280;30576;42.098;24.876;2022-12-07T04:03:52;99863.75;;;5.85;79.32
44839;BME280;30576;42.098;24.876;2022-12-07T04:06:17;99857.69;;;5.91;79.53
44839;BME280;30576;42.098;24.876;2022-12-07T04:08:43;99864.75;;;5.98;79.39
44839;BME280;30576;42.098;24.876;2022-12-07T04:11:08;99863.97;;;6.13;79.04
44839;BME280;30576;42.098;24.876;2022-12-07T04:13:33;99860.53;;;6.22;78.79
44839;BME280;30576;42.098;24.876;2022-12-07T04:16:19;99865.84;;;6.36;78.93
44839;BME280;30576;42.098;24.876;2022-12-07T04:18:45;99864.09;;;6.38;78.60
44839;BME280;30576;42.098;24.876;2022-12-07T04:21:10;99856.13;;;6.21;78.58
44839;BME280;30576;42.098;24.876;2022-12-07T04:23:36;99856.19;;;6.28;78.64
44839;BME280;30576;42.098;24.876;2022-12-07T04:26:01;99859.75;;;6.43;78.06
44839;BME280;30576;42.098;24.876;2022-12-07T04:28:26;99857.09;;;6.35;78.37
44839;BME280;30576;42.098;24.876;2022-12-07T04:30:51;99847.50;;;6.39;78.58
44839;BME280;30576;42.098;24.876;2022-12-07T04:33:17;99854.47;;;6.34;78.58
44839;BME280;30576;42.098;24.876;2022-12-07T04:35:42;99858.00;;;6.39;78.87
44839;BME280;30576;42.098;24.876;2022-12-07T04:38:08;99848.41;;;6.45;78.14
44839;BME280;30576;42.098;24.876;2022-12-07T04:40:34;99844.84;;;6.31;78.31
44839;BME280;30576;42.098;24.876;2022-12-07T04:42:59;99844.88;;;6.37;78.00
44839;BME280;30576;42.098;24.876;2022-12-07T04:45:24;99850.06;;;6.25;78.40
44839;BME280;30576;42.098;24.876;2022-12-07T04:47:50;99849.25;;;6.34;78.33
44839;BME280;30576;42.098;24.876;2022-12-07T04:50:15;99846.44;;;6.00;78.50
44839;BME280;30576;42.098;24.876;2022-12-07T04:52:40;99846.50;;;6.07;78.64
44839;BME280;30576;42.098;24.876;2022-12-07T04:55:06;99846.53;;;6.14;78.56
44839;BME280;30576;42.098;24.876;2022-12-07T04:57:31;99844.69;;;6.02;78.44
44839;BME280;30576;42.098;24.876;2022-12-07T04:59:56;99841.25;;;6.11;78.25
44839;BME280;30576;42.098;24.876;2022-12-07T05:02:22;99845.66;;;6.21;77.85
44839;BME280;30576;42.098;24.876;2022-12-07T05:04:47;99837.84;;;6.27;77.53
44839;BME280;30576;42.098;24.876;2022-12-07T05:07:13;99843.88;;;6.06;77.33
44839;BME280;30576;42.098;24.876;2022-12-07T05:09:39;99845.56;;;6.01;77.12
44839;BME280;30576;42.098;24.876;2022-12-07T05:12:04;99842.06;;;6.00;77.17
44839;BME280;30576;42.098;24.876;2022-12-07T05:14:29;99848.06;;;5.90;77.20
44839;BME280;30576;42.098;24.876;2022-12-07T05:16:55;99851.56;;;5.86;77.37
44839;BME280;30576;42.098;24.876;2022-12-07T05:19:20;99857.44;;;5.57;77.92
44839;BME280;30576;42.098;24.876;2022-12-07T05:21:45;99867.88;;;5.52;78.10
44839;BME280;30576;42.098;24.876;2022-12-07T05:24:12;99859.09;;;5.43;78.95
44839;BME280;30576;42.098;24.876;2022-12-07T05:26:37;99855.66;;;5.53;79.12
44839;BME280;30576;42.098;24.876;2022-12-07T05:29:03;99854.03;;;5.67;78.55
44839;BME280;30576;42.098;24.876;2022-12-07T05:31:28;99861.00;;;5.65;78.50
44839;BME280;30576;42.098;24.876;2022-12-07T05:33:54;99863.72;;;5.79;78.01
44839;BME280;30576;42.098;24.876;2022-12-07T05:36:19;99866.28;;;5.74;77.35
44839;BME280;30576;42.098;24.876;2022-12-07T05:38:45;99877.44;;;5.47;77.98
44839;BME280;30576;42.098;24.876;2022-12-07T05:41:12;99876.72;;;5.67;78.10
44839;BME280;30576;42.098;24.876;2022-12-07T05:43:57;99872.28;;;5.55;78.56
44839;BME280;30576;42.098;24.876;2022-12-07T05:46:23;99867.13;;;5.64;78.71
44839;BME280;30576;42.098;24.876;2022-12-07T05:48:48;99860.88;;;5.50;79.50
44839;BME280;30576;42.098;24.876;2022-12-07T05:51:14;99862.72;;;5.62;78.87
44839;BME280;30576;42.098;24.876;2022-12-07T05:53:39;99870.63;;;5.71;78.87
44839;BME280;30576;42.098;24.876;2022-12-07T05:56:04;99864.53;;;5.69;79.37
44839;BME280;30576;42.098;24.876;2022-12-07T05:58:30;99870.63;;;5.68;79.69
44839;BME280;30576;42.098;24.876;2022-12-07T06:01:27;99859.31;;;5.73;80.10
44839;BME280;30576;42.098;24.876;2022-12-07T06:03:53;99859.41;;;5.87;80.21
44839;BME280;30576;42.098;24.876;2022-12-07T06:06:18;99863.00;;;5.97;79.88
44839;BME280;30576;42.098;24.876;2022-12-07T06:08:43;99869.91;;;5.89;79.46
44839;BME280;30576;42.098;24.876;2022-12-07T06:11:09;99865.53;;;5.91;79.21
44839;BME280;30576;42.098;24.876;2022-12-07T06:13:53;99864.69;;;5.90;78.94
44839;BME280;30576;42.098;24.876;2022-12-07T06:16:18;99872.50;;;5.84;79.27
44839;BME280;30576;42.098;24.876;2022-12-07T06:18:43;99869.91;;;5.87;79.34
44839;BME280;30576;42.098;24.876;2022-12-07T06:21:09;99869.19;;;6.10;79.45
44839;BME280;30576;42.098;24.876;2022-12-07T06:23:34;99865.75;;;6.19;78.86
44839;BME280;30576;42.098;24.876;2022-12-07T06:25:59;99871.84;;;6.19;78.64
44839;BME280;30576;42.098;24.876;2022-12-07T06:28:25;99870.09;;;6.15;78.76
44839;BME280;30576;42.098;24.876;2022-12-07T06:30:56;99873.69;;;6.31;78.74
44839;BME280;30576;42.098;24.876;2022-12-07T06:33:22;99877.13;;;6.27;79.19
44839;BME280;30576;42.098;24.876;2022-12-07T06:35:47;99881.59;;;6.47;79.10
44839;BME280;30576;42.098;24.876;2022-12-07T06:38:12;99879.91;;;6.62;78.52
44839;BME280;30576;42.098;24.876;2022-12-07T06:40:38;99889.56;;;6.65;78.87
44839;BME280;30576;42.098;24.876;2022-12-07T06:43:03;99884.34;;;6.71;78.90
44839;BME280;30576;42.098;24.876;2022-12-07T06:45:28;99886.94;;;6.65;79.06
44839;BME280;30576;42.098;24.876;2022-12-07T06:47:53;99894.81;;;6.73;79.08
44839;BME280;30576;42.098;24.876;2022-12-07T06:50:19;99883.50;;;6.77;79.11
44839;BME280;30576;42.098;24.876;2022-12-07T06:52:44;99882.63;;;6.87;78.72
44839;BME280;30576;42.098;24.876;2022-12-07T06:55:09;99889.66;;;6.91;78.27
44839;BME280;30576;42.098;24.876;2022-12-07T06:57:35;99886.13;;;6.81;78.99
44839;BME280;30576;42.098;24.876;2022-12-07T07:00:00;99886.13;;;6.77;78.99
44839;BME280;30576;42.098;24.876;2022-12-07T07:02:25;99886.13;;;6.80;79.28
44839;BME280;30576;42.098;24.876;2022-12-07T07:04:51;99882.59;;;6.76;80.53
44839;BME280;30576;42.098;24.876;2022-12-07T07:07:16;99882.63;;;6.87;81.01
44839;BME280;30576;42.098;24.876;2022-12-07T07:09:41;99883.56;;;7.00;80.90
44839;BME280;30576;42.098;24.876;2022-12-07T07:12:06;99887.06;;;7.13;80.49
44839;BME280;30576;42.098;24.876;2022-12-07T07:14:32;99883.59;;;7.17;80.60
44839;BME280;30576;42.098;24.876;2022-12-07T07:16:57;99881.84;;;7.17;79.86
44839;BME280;30576;42.098;24.876;2022-12-07T07:19:23;99877.41;;;6.99;79.31
44839;BME280;30576;42.098;24.876;2022-12-07T07:21:48;99875.75;;;7.23;79.52
44839;BME280;30576;42.098;24.876;2022-12-07T07:24:13;99885.38;;;7.57;78.80
44839;BME280;30576;42.098;24.876;2022-12-07T07:26:39;99883.66;;;7.63;78.06
44839;BME280;30576;42.098;24.876;2022-12-07T07:29:04;99886.25;;;7.45;78.88
44839;BME280;30576;42.098;24.876;2022-12-07T07:31:29;99882.75;;;7.50;77.98
44839;BME280;30576;42.098;24.876;2022-12-07T07:33:55;99884.50;;;7.53;79.22
44839;BME280;30576;42.098;24.876;2022-12-07T07:36:20;99888.91;;;7.74;78.63
44839;BME280;30576;42.098;24.876;2022-12-07T07:38:45;99888.91;;;7.66;79.99
44839;BME280;30576;42.098;24.876;2022-12-07T07:41:10;99886.28;;;7.66;80.14
44839;BME280;30576;42.098;24.876;2022-12-07T07:43:36;99895.00;;;7.90;79.27
44839;BME280;30576;42.098;24.876;2022-12-07T07:46:01;99897.63;;;7.93;79.01
44839;BME280;30576;42.098;24.876;2022-12-07T07:48:26;99886.22;;;8.14;78.26
44839;BME280;30576;42.098;24.876;2022-12-07T07:50:52;99889.75;;;7.96;77.84
44839;BME280;30576;42.098;24.876;2022-12-07T07:53:17;99890.63;;;7.89;78.27
44839;BME280;30576;42.098;24.876;2022-12-07T07:55:50;99884.44;;;8.19;77.30
44839;BME280;30576;42.098;24.876;2022-12-07T07:58:15;99889.72;;;8.04;76.34
44839;BME280;30576;42.098;24.876;2022-12-07T08:00:41;99901.13;;;7.83;77.81
44839;BME280;30576;42.098;24.876;2022-12-07T08:03:06;99899.38;;;7.96;77.41
44839;BME280;30576;42.098;24.876;2022-12-07T08:05:31;99887.97;;;7.91;77.17
44839;BME280;30576;42.098;24.876;2022-12-07T08:07:57;99888.81;;;8.28;77.09
44839;BME280;30576;42.098;24.876;2022-12-07T08:10:22;99879.13;;;8.41;75.38
44839;BME280;30576;42.098;24.876;2022-12-07T08:12:47;99884.44;;;8.24;74.91
44839;BME280;30576;42.098;24.876;2022-12-07T08:15:31;99881.72;;;8.58;74.32
44839;BME280;30576;42.098;24.876;2022-12-07T08:17:57;99884.34;;;8.66;73.99
44839;BME280;30576;42.098;24.876;2022-12-07T08:20:22;99882.56;;;8.63;72.80
44839;BME280;30576;42.098;24.876;2022-12-07T08:22:48;99886.75;;;9.06;72.45
44839;BME280;30576;42.098;24.876;2022-12-07T08:25:13;99883.06;;;9.36;71.59
44839;BME280;30576;42.098;24.876;2022-12-07T08:27:38;99886.31;;;9.72;70.41
44839;BME280;30576;42.098;24.876;2022-12-07T08:30:04;99894.09;;;9.86;69.89
44839;BME280;30576;42.098;24.876;2022-12-07T08:32:29;99883.50;;;9.91;70.06
44839;BME280;30576;42.098;24.876;2022-12-07T08:34:55;99890.31;;;10.13;68.38
44839;BME280;30576;42.098;24.876;2022-12-07T08:37:20;99883.16;;;10.25;67.96
44839;BME280;30576;42.098;24.876;2022-12-07T08:39:45;99880.91;;;9.86;69.21
44839;BME280;30576;42.098;24.876;2022-12-07T08:42:11;99877.69;;;9.52;71.10
44839;BME280;30576;42.098;24.876;2022-12-07T08:44:36;99876.41;;;9.97;70.23
44839;BME280;30576;42.098;24.876;2022-12-07T08:47:02;99882.22;;;10.35;68.79
44839;BME280;30576;42.098;24.876;2022-12-07T08:49:33;99879.78;;;10.12;69.27
44839;BME280;30576;42.098;24.876;2022-12-07T08:52:01;99876.47;;;9.91;69.98
44839;BME280;30576;42.098;24.876;2022-12-07T08:54:27;99876.22;;;10.16;69.45
44839;BME280;30576;42.098;24.876;2022-12-07T08:56:53;99869.91;;;10.34;69.33
44839;BME280;30576;42.098;24.876;2022-12-07T08:59:20;99864.66;;;10.34;68.24
44839;BME280;30576;42.098;24.876;2022-12-07T09:01:45;99866.94;;;10.62;69.46
44839;BME280;30576;42.098;24.876;2022-12-07T09:04:11;99861.41;;;10.83;67.91
44839;BME280;30576;42.098;24.876;2022-12-07T09:06:36;99859.72;;;10.76;67.58
44839;BME280;30576;42.098;24.876;2022-12-07T09:09:02;99855.28;;;10.78;67.32
44839;BME280;30576;42.098;24.876;2022-12-07T09:11:28;99847.84;;;11.09;66.17
44839;BME280;30576;42.098;24.876;2022-12-07T09:13:53;99839.97;;;11.06;66.52
44839;BME280;30576;42.098;24.876;2022-12-07T09:16:19;99837.03;;;11.25;65.46
44839;BME280;30576;42.098;24.876;2022-12-07T09:18:44;99840.13;;;10.96;67.30
44839;BME280;30576;42.098;24.876;2022-12-07T09:21:09;99832.78;;;11.15;65.86
44839;BME280;30576;42.098;24.876;2022-12-07T09:23:35;99828.53;;;11.04;66.13
44839;BME280;30576;42.098;24.876;2022-12-07T09:26:01;99802.53;;;10.78;66.45
44839;BME280;30576;42.098;24.876;2022-12-07T09:28:26;99820.84;;;10.87;67.13
44839;BME280;30576;42.098;24.876;2022-12-07T09:30:51;99816.66;;;10.74;67.55
44839;BME280;30576;42.098;24.876;2022-12-07T09:33:17;99823.75;;;10.69;67.43
44839;BME280;30576;42.098;24.876;2022-12-07T09:35:46;99804.88;;;10.98;66.03
44839;BME280;30576;42.098;24.876;2022-12-07T09:38:11;99797.16;;;10.83;66.45
44839;BME280;30576;42.098;24.876;2022-12-07T09:40:37;99806.50;;;11.07;65.75
44839;BME280;30576;42.098;24.876;2022-12-07T09:43:02;99797.50;;;11.20;64.74
44839;BME280;30576;42.098;24.876;2022-12-07T09:45:32;99793.59;;;11.43;62.95
44839;BME280;30576;42.098;24.876;2022-12-07T09:47:58;99787.38;;;11.47;62.75
44839;BME280;30576;42.098;24.876;2022-12-07T09:50:25;99787.47;;;11.42;64.08
44839;BME280;30576;42.098;24.876;2022-12-07T09:52:51;99779.56;;;11.41;64.70
44839;BME280;30576;42.098;24.876;2022-12-07T09:55:24;99778.63;;;11.45;65.01
44839;BME280;30576;42.098;24.876;2022-12-07T09:57:49;99778.97;;;11.75;62.23
44839;BME280;30576;42.098;24.876;2022-12-07T10:00:17;99772.03;;;11.68;63.80
44839;BME280;30576;42.098;24.876;2022-12-07T10:03:04;99767.22;;;11.93;62.97
44839;BME280;30576;42.098;24.876;2022-12-07T10:05:33;99759.69;;;12.16;62.42
44839;BME280;30576;42.098;24.876;2022-12-07T10:08:00;99755.03;;;11.82;63.11
44839;BME280;30576;42.098;24.876;2022-12-07T10:10:27;99765.44;;;11.93;62.56
44839;BME280;30576;42.098;24.876;2022-12-07T10:15:19;99759.25;;;11.94;61.82
44839;BME280;30576;42.098;24.876;2022-12-07T10:17:51;99767.03;;;12.02;62.62
44839;BME280;30576;42.098;24.876;2022-12-07T10:20:24;99759.66;;;12.18;62.25
44839;BME280;30576;42.098;24.876;2022-12-07T10:23:00;99759.06;;;12.04;61.70
44839;BME280;30576;42.098;24.876;2022-12-07T10:25:30;99745.63;;;12.14;61.29
44839;BME280;30576;42.098;24.876;2022-12-07T10:28:17;99746.91;;;11.92;61.66
44839;BME280;30576;42.098;24.876;2022-12-07T10:33:27;99738.47;;;11.74;61.18
44839;BME280;30576;42.098;24.876;2022-12-07T10:35:53;99740.09;;;11.80;60.77
44839;BME280;30576;42.098;24.876;2022-12-07T10:38:18;99738.75;;;12.06;61.19
44839;BME280;30576;42.098;24.876;2022-12-07T10:40:43;99735.81;;;12.20;61.10
44839;BME280;30576;42.098;24.876;2022-12-07T10:53:58;99742.81;;;12.63;60.96
44839;BME280;30576;42.098;24.876;2022-12-07T11:01:36;99740.69;;;11.97;62.31
44839;BME280;30576;42.098;24.876;2022-12-07T11:06:39;99731.06;;;12.35;60.85
44839;BME280;30576;42.098;24.876;2022-12-07T11:09:16;99725.41;;;12.12;62.26
44839;BME280;30576;42.098;24.876;2022-12-07T11:16:49;99701.22;;;11.87;63.84
44839;BME280;30576;42.098;24.876;2022-12-07T11:19:30;99702.13;;;11.84;63.15
44839;BME280;30576;42.098;24.876;2022-12-07T11:22:00;99701.47;;;12.18;62.55
44839;BME280;30576;42.098;24.876;2022-12-07T11:29:49;99686.69;;;12.50;60.32
44839;BME280;30576;42.098;24.876;2022-12-07T11:32:23;99684.28;;;12.39;61.69
44839;BME280;30576;42.098;24.876;2022-12-07T11:37:38;99684.06;;;12.48;60.84
44839;BME280;30576;42.098;24.876;2022-12-07T11:40:16;99685.53;;;12.21;60.82
44839;BME280;30576;42.098;24.876;2022-12-07T11:42:52;99690.72;;;12.26;60.55
44839;BME280;30576;42.098;24.876;2022-12-07T11:47:57;99675.38;;;12.81;59.79
44839;BME280;30576;42.098;24.876;2022-12-07T11:50:47;99678.13;;;12.76;59.84
44839;BME280;30576;42.098;24.876;2022-12-07T11:55:43;99667.38;;;12.45;60.88
44839;BME280;30576;42.098;24.876;2022-12-07T12:00:40;99643.88;;;12.70;60.91
44839;BME280;30576;42.098;24.876;2022-12-07T12:03:11;99656.84;;;12.81;60.96
44839;BME280;30576;42.098;24.876;2022-12-07T12:05:37;99651.47;;;12.84;61.29
44839;BME280;30576;42.098;24.876;2022-12-07T12:08:14;99645.13;;;12.89;60.85
44839;BME280;30576;42.098;24.876;2022-12-07T12:21:09;99639.22;;;13.13;60.32
44839;BME280;30576;42.098;24.876;2022-12-07T12:23:54;99643.00;;;13.04;60.64
44839;BME280;30576;42.098;24.876;2022-12-07T12:26:22;99645.47;;;13.12;59.82
44839;BME280;30576;42.098;24.876;2022-12-07T12:28:55;99636.38;;;13.20;59.72
44839;BME280;30576;42.098;24.876;2022-12-07T12:33:50;99630.28;;;13.18;59.21
44839;BME280;30576;42.098;24.876;2022-12-07T12:36:23;99637.97;;;13.28;58.71
44839;BME280;30576;42.098;24.876;2022-12-07T12:39:10;99632.97;;;13.17;58.66
44839;BME280;30576;42.098;24.876;2022-12-07T12:46:48;99629.44;;;13.16;57.92
44839;BME280;30576;42.098;24.876;2022-12-07T12:51:52;99631.56;;;13.02;59.22
44839;BME280;30576;42.098;24.876;2022-12-07T12:59:30;99616.84;;;13.24;58.29
44839;BME280;30576;42.098;24.876;2022-12-07T13:02:46;99621.13;;;13.30;57.83
44839;BME280;30576;42.098;24.876;2022-12-07T13:10:43;99611.84;;;13.14;59.93
44839;BME280;30576;42.098;24.876;2022-12-07T13:13:08;99611.41;;;13.31;58.57
44839;BME280;30576;42.098;24.876;2022-12-07T13:16:35;99608.31;;;13.15;57.63
44839;BME280;30576;42.098;24.876;2022-12-07T13:18:37;99611.41;;;13.31;56.71
44839;BME280;30576;42.098;24.876;2022-12-07T13:26:16;99604.00;;;12.76;57.95
44839;BME280;30576;42.098;24.876;2022-12-07T13:29:27;99612.56;;;12.86;58.38
44839;BME280;30576;42.098;24.876;2022-12-07T13:33:55;99610.72;;;12.89;58.20
44839;BME280;30576;42.098;24.876;2022-12-07T13:36:31;99618.13;;;12.75;58.23
44839;BME280;30576;42.098;24.876;2022-12-07T13:39:11;99606.50;;;12.82;58.78
44839;BME280;30576;42.098;24.876;2022-12-07T13:41:42;99614.22;;;12.92;58.58
44839;BME280;30576;42.098;24.876;2022-12-07T13:44:09;99606.09;;;12.98;59.28
44839;BME280;30576;42.098;24.876;2022-12-07T13:51:44;99600.56;;;12.72;60.37
44839;BME280;30576;42.098;24.876;2022-12-07T13:54:11;99607.72;;;12.69;61.69
44839;BME280;30576;42.098;24.876;2022-12-07T13:56:37;99604.13;;;12.71;61.26
44839;BME280;30576;42.098;24.876;2022-12-07T13:59:20;99606.13;;;12.62;61.44
44839;BME280;30576;42.098;24.876;2022-12-07T14:01:47;99607.75;;;12.67;61.13
44839;BME280;30576;42.098;24.876;2022-12-07T14:04:16;99608.66;;;12.66;61.48
44839;BME280;30576;42.098;24.876;2022-12-07T14:06:51;99613.28;;;12.58;61.32
44839;BME280;30576;42.098;24.876;2022-12-07T14:09:24;99619.47;;;12.57;61.19
44839;BME280;30576;42.098;24.876;2022-12-07T14:11:51;99616.88;;;12.54;61.89
44839;BME280;30576;42.098;24.876;2022-12-07T14:14:18;99625.50;;;12.64;61.42
44839;BME280;30576;42.098;24.876;2022-12-07T14:16:45;99617.75;;;12.56;62.12
44839;BME280;30576;42.098;24.876;2022-12-07T14:19:41;99619.75;;;12.45;62.95
44839;BME280;30576;42.098;24.876;2022-12-07T14:22:08;99617.41;;;12.32;62.75
44839;BME280;30576;42.098;24.876;2022-12-07T14:24:43;99622.69;;;12.32;62.24
44839;BME280;30576;42.098;24.876;2022-12-07T14:27:19;99614.97;;;12.23;63.01
44839;BME280;30576;42.098;24.876;2022-12-07T14:29:44;99615.94;;;12.21;64.01
44839;BME280;30576;42.098;24.876;2022-12-07T14:32:21;99612.56;;;12.12;64.02
44839;BME280;30576;42.098;24.876;2022-12-07T14:34:55;99618.03;;;12.05;63.77
44839;BME280;30576;42.098;24.876;2022-12-07T14:37:21;99613.72;;;12.00;64.39
44839;BME280;30576;42.098;24.876;2022-12-07T14:39:46;99609.44;;;11.95;64.38
44839;BME280;30576;42.098;24.876;2022-12-07T14:42:12;99610.41;;;11.89;64.27
44839;BME280;30576;42.098;24.876;2022-12-07T14:44:37;99604.41;;;11.81;64.47
44839;BME280;30576;42.098;24.876;2022-12-07T14:47:02;99613.34;;;11.75;64.70
44839;BME280;30576;42.098;24.876;2022-12-07T14:49:28;99609.09;;;11.68;64.68
44839;BME280;30576;42.098;24.876;2022-12-07T14:51:53;99614.06;;;11.40;66.10
44839;BME280;30576;42.098;24.876;2022-12-07T14:54:19;99618.28;;;11.49;65.57